sensor_id;sensor_type;location;lat;lon;timestamp;temperature;humidity
27072;DHT22;14613;46.308;25.288;2023-02-14T00:01:33;3.30;76.10
27072;DHT22;14613;46.308;25.288;2023-02-14T00:03:59;3.30;76.10
27072;DHT22;14613;46.308;25.288;2023-02-14T00:06:26;3.30;76.10
27072;DHT22;14613;46.308;25.288;2023-02-14T00:08:52;3.30;76.10
27072;DHT22;14613;46.308;25.288;2023-02-14T00:11:20;3.30;76.10
27072;DHT22;14613;46.308;25.288;2023-02-14T00:13:46;3.30;76.10
27072;DHT22;14613;46.308;25.288;2023-02-14T00:16:31;3.30;76.20
27072;DHT22;14613;46.308;25.288;2023-02-14T00:18:57;3.30;76.10
27072;DHT22;14613;46.308;25.288;2023-02-14T00:21:34;3.30;76.20
27072;DHT22;14613;46.308;25.288;2023-02-14T00:24:01;3.30;76.20
27072;DHT22;14613;46.308;25.288;2023-02-14T00:26:27;3.30;76.30
27072;DHT22;14613;46.308;25.288;2023-02-14T00:28:53;3.30;76.40
27072;DHT22;14613;46.308;25.288;2023-02-14T00:31:19;3.30;76.40
27072;DHT22;14613;46.308;25.288;2023-02-14T00:33:45;3.30;76.40
27072;DHT22;14613;46.308;25.288;2023-02-14T00:36:11;3.40;77.30
27072;DHT22;14613;46.308;25.288;2023-02-14T00:38:36;3.40;76.50
27072;DHT22;14613;46.308;25.288;2023-02-14T00:41:02;3.40;76.50
27072;DHT22;14613;46.308;25.288;2023-02-14T00:43:29;3.40;76.50
27072;DHT22;14613;46.308;25.288;2023-02-14T00:45:55;3.30;76.50
27072;DHT22;14613;46.308;25.288;2023-02-14T00:48:21;3.30;76.50
27072;DHT22;14613;46.308;25.288;2023-02-14T00:50:47;3.30;76.60
27072;DHT22;14613;46.308;25.288;2023-02-14T00:53:13;3.30;76.70
27072;DHT22;14613;46.308;25.288;2023-02-14T00:55:39;3.30;76.80
27072;DHT22;14613;46.308;25.288;2023-02-14T00:58:04;3.30;76.80
27072;DHT22;14613;46.308;25.288;2023-02-14T01:00:30;3.30;76.90
27072;DHT22;14613;46.308;25.288;2023-02-14T01:02:56;3.30;76.90
27072;DHT22;14613;46.308;25.288;2023-02-14T01:05:22;3.30;77.00
27072;DHT22;14613;46.308;25.288;2023-02-14T01:07:47;3.30;77.00
27072;DHT22;14613;46.308;25.288;2023-02-14T01:10:13;3.40;77.10
27072;DHT22;14613;46.308;25.288;2023-02-14T01:12:39;3.30;77.00
27072;DHT22;14613;46.308;25.288;2023-02-14T01:15:05;3.40;77.10
27072;DHT22;14613;46.308;25.288;2023-02-14T01:17:31;3.40;77.00
27072;DHT22;14613;46.308;25.288;2023-02-14T01:19:57;3.40;77.10
27072;DHT22;14613;46.308;25.288;2023-02-14T01:22:22;3.40;77.00
27072;DHT22;14613;46.308;25.288;2023-02-14T01:24:48;3.40;77.00
27072;DHT22;14613;46.308;25.288;2023-02-14T01:27:14;3.40;77.10
27072;DHT22;14613;46.308;25.288;2023-02-14T01:29:40;3.40;77.10
27072;DHT22;14613;46.308;25.288;2023-02-14T01:32:06;3.40;77.10
27072;DHT22;14613;46.308;25.288;2023-02-14T01:34:32;3.40;77.20
27072;DHT22;14613;46.308;25.288;2023-02-14T01:36:57;3.30;77.20
27072;DHT22;14613;46.308;25.288;2023-02-14T01:39:23;3.30;77.20
27072;DHT22;14613;46.308;25.288;2023-02-14T01:41:49;3.40;77.30
27072;DHT22;14613;46.308;25.288;2023-02-14T01:46:44;3.40;77.30
27072;DHT22;14613;46.308;25.288;2023-02-14T01:49:14;3.40;77.10
27072;DHT22;14613;46.308;25.288;2023-02-14T01:52:07;3.40;77.20
27072;DHT22;14613;46.308;25.288;2023-02-14T01:54:37;3.40;77.30
27072;DHT22;14613;46.308;25.288;2023-02-14T01:57:09;3.40;77.30
27072;DHT22;14613;46.308;25.288;2023-02-14T01:59:38;3.40;77.30
27072;DHT22;14613;46.308;25.288;2023-02-14T02:02:06;3.40;77.30
27072;DHT22;14613;46.308;25.288;2023-02-14T02:04:37;3.40;77.40
27072;DHT22;14613;46.308;25.288;2023-02-14T02:07:11;3.40;77.40
27072;DHT22;14613;46.308;25.288;2023-02-14T02:12:11;3.40;77.40
27072;DHT22;14613;46.308;25.288;2023-02-14T02:14:37;3.40;77.40
27072;DHT22;14613;46.308;25.288;2023-02-14T02:25:23;3.40;77.40
27072;DHT22;14613;46.308;25.288;2023-02-14T02:42:26;3.40;77.30
27072;DHT22;14613;46.308;25.288;2023-02-14T02:47:45;3.40;77.50
27072;DHT22;14613;46.308;25.288;2023-02-14T02:50:30;3.40;77.50
27072;DHT22;14613;46.308;25.288;2023-02-14T02:53:20;3.30;77.50
27072;DHT22;14613;46.308;25.288;2023-02-14T02:55:58;3.30;77.60
27072;DHT22;14613;46.308;25.288;2023-02-14T02:59:02;3.30;77.60
27072;DHT22;14613;46.308;25.288;2023-02-14T03:01:46;3.30;77.60
27072;DHT22;14613;46.308;25.288;2023-02-14T03:04:15;3.30;77.60
27072;DHT22;14613;46.308;25.288;2023-02-14T03:07:01;3.30;77.60
27072;DHT22;14613;46.308;25.288;2023-02-14T03:09:55;3.30;77.70
27072;DHT22;14613;46.308;25.288;2023-02-14T03:15:24;3.30;77.70
27072;DHT22;14613;46.308;25.288;2023-02-14T03:26:48;3.30;77.90
27072;DHT22;14613;46.308;25.288;2023-02-14T03:29:30;3.30;77.90
27072;DHT22;14613;46.308;25.288;2023-02-14T03:32:10;3.30;77.90
27072;DHT22;14613;46.308;25.288;2023-02-14T03:40:27;3.30;78.10
27072;DHT22;14613;46.308;25.288;2023-02-14T03:43:13;3.30;78.00
27072;DHT22;14613;46.308;25.288;2023-02-14T03:45:48;3.30;78.00
27072;DHT22;14613;46.308;25.288;2023-02-14T03:48:19;3.30;78.00
27072;DHT22;14613;46.308;25.288;2023-02-14T03:50:48;3.30;77.90
27072;DHT22;14613;46.308;25.288;2023-02-14T03:53:17;3.30;77.90
27072;DHT22;14613;46.308;25.288;2023-02-14T03:58:33;3.40;78.10
27072;DHT22;14613;46.308;25.288;2023-02-14T04:01:07;3.40;78.10
27072;DHT22;14613;46.308;25.288;2023-02-14T04:03:38;3.30;78.20
27072;DHT22;14613;46.308;25.288;2023-02-14T04:06:05;3.30;78.40
27072;DHT22;14613;46.308;25.288;2023-02-14T04:08:31;3.20;78.40
27072;DHT22;14613;46.308;25.288;2023-02-14T04:11:00;3.20;78.50
27072;DHT22;14613;46.308;25.288;2023-02-14T04:13:26;3.20;78.60
27072;DHT22;14613;46.308;25.288;2023-02-14T04:15:52;3.30;78.60
27072;DHT22;14613;46.308;25.288;2023-02-14T04:18:18;3.30;78.50
27072;DHT22;14613;46.308;25.288;2023-02-14T04:21:02;3.30;78.50
27072;DHT22;14613;46.308;25.288;2023-02-14T04:23:28;3.30;78.50
27072;DHT22;14613;46.308;25.288;2023-02-14T04:25:54;3.30;78.50
27072;DHT22;14613;46.308;25.288;2023-02-14T04:28:20;3.40;78.50
27072;DHT22;14613;46.308;25.288;2023-02-14T04:30:46;3.40;79.30
27072;DHT22;14613;46.308;25.288;2023-02-14T04:33:11;3.40;78.40
27072;DHT22;14613;46.308;25.288;2023-02-14T04:35:37;3.40;78.40
27072;DHT22;14613;46.308;25.288;2023-02-14T04:38:04;3.40;78.40
27072;DHT22;14613;46.308;25.288;2023-02-14T04:40:30;3.40;78.40
27072;DHT22;14613;46.308;25.288;2023-02-14T04:42:56;3.40;78.40
27072;DHT22;14613;46.308;25.288;2023-02-14T04:45:22;3.40;78.30
27072;DHT22;14613;46.308;25.288;2023-02-14T04:47:48;3.40;78.40
27072;DHT22;14613;46.308;25.288;2023-02-14T04:50:14;3.40;78.40
27072;DHT22;14613;46.308;25.288;2023-02-14T04:52:40;3.40;78.40
27072;DHT22;14613;46.308;25.288;2023-02-14T04:55:06;3.40;78.40
27072;DHT22;14613;46.308;25.288;2023-02-14T04:57:32;3.40;78.50
27072;DHT22;14613;46.308;25.288;2023-02-14T04:59:58;3.30;78.50
27072;DHT22;14613;46.308;25.288;2023-02-14T05:02:24;3.30;78.60
27072;DHT22;14613;46.308;25.288;2023-02-14T05:04:50;3.30;78.70
27072;DHT22;14613;46.308;25.288;2023-02-14T05:07:16;3.30;78.70
27072;DHT22;14613;46.308;25.288;2023-02-14T05:09:41;3.30;78.80
27072;DHT22;14613;46.308;25.288;2023-02-14T05:12:07;3.40;78.80
27072;DHT22;14613;46.308;25.288;2023-02-14T05:14:33;3.40;78.80
27072;DHT22;14613;46.308;25.288;2023-02-14T05:16:59;3.40;79.60
27072;DHT22;14613;46.308;25.288;2023-02-14T05:19:25;3.40;78.80
27072;DHT22;14613;46.308;25.288;2023-02-14T05:21:51;3.40;78.80
27072;DHT22;14613;46.308;25.288;2023-02-14T05:24:17;3.40;78.80
27072;DHT22;14613;46.308;25.288;2023-02-14T05:26:43;3.40;78.80
27072;DHT22;14613;46.308;25.288;2023-02-14T05:29:08;3.40;78.80
27072;DHT22;14613;46.308;25.288;2023-02-14T05:31:34;3.40;78.80
27072;DHT22;14613;46.308;25.288;2023-02-14T05:34:00;3.40;78.80
27072;DHT22;14613;46.308;25.288;2023-02-14T05:36:26;3.50;78.80
27072;DHT22;14613;46.308;25.288;2023-02-14T05:38:52;3.50;78.80
27072;DHT22;14613;46.308;25.288;2023-02-14T05:41:18;3.50;78.70
27072;DHT22;14613;46.308;25.288;2023-02-14T05:43:43;3.50;78.70
27072;DHT22;14613;46.308;25.288;2023-02-14T05:46:09;3.50;79.40
27072;DHT22;14613;46.308;25.288;2023-02-14T05:48:35;3.60;78.70
27072;DHT22;14613;46.308;25.288;2023-02-14T05:51:08;3.60;78.60
27072;DHT22;14613;46.308;25.288;2023-02-14T05:53:34;3.60;78.60
27072;DHT22;14613;46.308;25.288;2023-02-14T05:56:00;3.60;78.60
27072;DHT22;14613;46.308;25.288;2023-02-14T05:58:26;3.60;78.50
27072;DHT22;14613;46.308;25.288;2023-02-14T06:00:52;3.60;78.50
27072;DHT22;14613;46.308;25.288;2023-02-14T06:03:17;3.60;78.50
27072;DHT22;14613;46.308;25.288;2023-02-14T06:05:43;3.70;78.50
27072;DHT22;14613;46.308;25.288;2023-02-14T06:08:09;3.70;78.50
27072;DHT22;14613;46.308;25.288;2023-02-14T06:10:35;3.70;78.50
27072;DHT22;14613;46.308;25.288;2023-02-14T06:13:00;3.70;78.50
27072;DHT22;14613;46.308;25.288;2023-02-14T06:15:26;3.70;78.50
27072;DHT22;14613;46.308;25.288;2023-02-14T06:17:54;3.70;78.50
27072;DHT22;14613;46.308;25.288;2023-02-14T06:20:20;3.70;78.50
27072;DHT22;14613;46.308;25.288;2023-02-14T06:22:46;3.70;78.50
27072;DHT22;14613;46.308;25.288;2023-02-14T06:25:12;3.70;78.50
27072;DHT22;14613;46.308;25.288;2023-02-14T06:27:38;3.70;78.50
27072;DHT22;14613;46.308;25.288;2023-02-14T06:30:05;3.70;78.40
27072;DHT22;14613;46.308;25.288;2023-02-14T06:32:31;3.70;78.40
27072;DHT22;14613;46.308;25.288;2023-02-14T06:34:56;3.70;78.40
27072;DHT22;14613;46.308;25.288;2023-02-14T06:37:22;3.70;78.40
27072;DHT22;14613;46.308;25.288;2023-02-14T06:39:48;3.70;78.50
27072;DHT22;14613;46.308;25.288;2023-02-14T06:42:14;3.70;78.50
27072;DHT22;14613;46.308;25.288;2023-02-14T06:44:40;3.70;78.60
27072;DHT22;14613;46.308;25.288;2023-02-14T06:47:06;3.80;78.60
27072;DHT22;14613;46.308;25.288;2023-02-14T06:49:33;3.80;78.60
27072;DHT22;14613;46.308;25.288;2023-02-14T06:51:59;3.80;78.50
27072;DHT22;14613;46.308;25.288;2023-02-14T06:54:24;3.80;78.40
27072;DHT22;14613;46.308;25.288;2023-02-14T06:56:50;3.80;78.40
27072;DHT22;14613;46.308;25.288;2023-02-14T06:59:16;3.80;78.40
27072;DHT22;14613;46.308;25.288;2023-02-14T07:01:42;3.70;78.40
27072;DHT22;14613;46.308;25.288;2023-02-14T07:04:08;3.70;78.50
27072;DHT22;14613;46.308;25.288;2023-02-14T07:06:35;3.70;78.70
27072;DHT22;14613;46.308;25.288;2023-02-14T07:09:02;3.70;78.80
27072;DHT22;14613;46.308;25.288;2023-02-14T07:11:28;3.60;78.80
27072;DHT22;14613;46.308;25.288;2023-02-14T07:13:54;3.60;79.00
27072;DHT22;14613;46.308;25.288;2023-02-14T07:16:20;3.70;79.10
27072;DHT22;14613;46.308;25.288;2023-02-14T07:18:45;3.70;79.20
27072;DHT22;14613;46.308;25.288;2023-02-14T07:21:11;3.60;79.20
27072;DHT22;14613;46.308;25.288;2023-02-14T07:23:37;3.50;79.40
27072;DHT22;14613;46.308;25.288;2023-02-14T07:26:04;3.50;79.70
27072;DHT22;14613;46.308;25.288;2023-02-14T07:28:29;3.50;79.90
27072;DHT22;14613;46.308;25.288;2023-02-14T07:30:59;3.50;79.90
27072;DHT22;14613;46.308;25.288;2023-02-14T07:33:25;3.50;79.90
27072;DHT22;14613;46.308;25.288;2023-02-14T07:35:51;3.50;79.90
27072;DHT22;14613;46.308;25.288;2023-02-14T07:38:17;3.50;80.00
27072;DHT22;14613;46.308;25.288;2023-02-14T07:40:43;3.40;80.30
27072;DHT22;14613;46.308;25.288;2023-02-14T07:43:09;3.40;80.40
27072;DHT22;14613;46.308;25.288;2023-02-14T07:45:34;3.40;80.40
27072;DHT22;14613;46.308;25.288;2023-02-14T07:48:01;3.50;80.30
27072;DHT22;14613;46.308;25.288;2023-02-14T07:50:27;3.60;80.30
27072;DHT22;14613;46.308;25.288;2023-02-14T07:52:54;3.60;80.30
27072;DHT22;14613;46.308;25.288;2023-02-14T07:55:20;3.60;80.50
27072;DHT22;14613;46.308;25.288;2023-02-14T07:57:48;3.70;80.50
27072;DHT22;14613;46.308;25.288;2023-02-14T08:00:14;3.70;80.40
27072;DHT22;14613;46.308;25.288;2023-02-14T08:02:40;3.80;80.40
27072;DHT22;14613;46.308;25.288;2023-02-14T08:05:06;3.90;80.30
27072;DHT22;14613;46.308;25.288;2023-02-14T08:07:32;3.90;80.10
27072;DHT22;14613;46.308;25.288;2023-02-14T08:09:58;4.00;80.10
27072;DHT22;14613;46.308;25.288;2023-02-14T08:12:24;4.00;80.00
27072;DHT22;14613;46.308;25.288;2023-02-14T08:15:08;4.10;80.00
27072;DHT22;14613;46.308;25.288;2023-02-14T08:17:55;4.10;79.90
27072;DHT22;14613;46.308;25.288;2023-02-14T08:20:20;4.20;79.90
27072;DHT22;14613;46.308;25.288;2023-02-14T08:22:46;4.20;79.70
27072;DHT22;14613;46.308;25.288;2023-02-14T08:25:12;4.30;79.60
27072;DHT22;14613;46.308;25.288;2023-02-14T08:27:38;4.40;79.60
27072;DHT22;14613;46.308;25.288;2023-02-14T08:30:04;4.40;79.60
27072;DHT22;14613;46.308;25.288;2023-02-14T08:32:30;4.50;79.40
27072;DHT22;14613;46.308;25.288;2023-02-14T08:34:56;4.50;79.50
27072;DHT22;14613;46.308;25.288;2023-02-14T08:37:22;4.60;79.50
27072;DHT22;14613;46.308;25.288;2023-02-14T08:39:47;4.60;79.30
27072;DHT22;14613;46.308;25.288;2023-02-14T08:42:13;4.60;79.20
27072;DHT22;14613;46.308;25.288;2023-02-14T08:44:39;4.70;79.10
27072;DHT22;14613;46.308;25.288;2023-02-14T08:47:04;4.60;79.10
27072;DHT22;14613;46.308;25.288;2023-02-14T08:49:30;4.70;79.30
27072;DHT22;14613;46.308;25.288;2023-02-14T08:51:56;4.70;79.30
27072;DHT22;14613;46.308;25.288;2023-02-14T08:54:22;4.70;79.30
27072;DHT22;14613;46.308;25.288;2023-02-14T08:56:47;4.80;79.40
27072;DHT22;14613;46.308;25.288;2023-02-14T08:59:13;4.80;79.40
27072;DHT22;14613;46.308;25.288;2023-02-14T09:01:39;4.90;79.60
27072;DHT22;14613;46.308;25.288;2023-02-14T09:04:05;5.00;79.50
27072;DHT22;14613;46.308;25.288;2023-02-14T09:06:31;5.00;79.50
27072;DHT22;14613;46.308;25.288;2023-02-14T09:08:57;5.10;79.40
27072;DHT22;14613;46.308;25.288;2023-02-14T09:11:24;5.20;79.30
27072;DHT22;14613;46.308;25.288;2023-02-14T09:13:51;5.20;79.20
27072;DHT22;14613;46.308;25.288;2023-02-14T09:16:21;5.20;79.20
27072;DHT22;14613;46.308;25.288;2023-02-14T09:18:47;5.30;79.20
27072;DHT22;14613;46.308;25.288;2023-02-14T09:21:18;5.30;79.10
27072;DHT22;14613;46.308;25.288;2023-02-14T09:23:45;5.30;78.80
27072;DHT22;14613;46.308;25.288;2023-02-14T09:26:12;5.30;78.70
27072;DHT22;14613;46.308;25.288;2023-02-14T09:28:38;5.30;78.90
27072;DHT22;14613;46.308;25.288;2023-02-14T09:31:10;5.30;79.00
27072;DHT22;14613;46.308;25.288;2023-02-14T09:33:36;5.40;79.20
27072;DHT22;14613;46.308;25.288;2023-02-14T09:36:21;5.40;79.00
27072;DHT22;14613;46.308;25.288;2023-02-14T09:38:46;5.40;79.20
27072;DHT22;14613;46.308;25.288;2023-02-14T09:44:10;5.50;79.50
27072;DHT22;14613;46.308;25.288;2023-02-14T09:46:45;5.60;79.50
27072;DHT22;14613;46.308;25.288;2023-02-14T09:49:14;5.80;80.00
27072;DHT22;14613;46.308;25.288;2023-02-14T09:51:49;5.90;80.00
27072;DHT22;14613;46.308;25.288;2023-02-14T09:54:20;6.10;79.80
27072;DHT22;14613;46.308;25.288;2023-02-14T09:57:10;6.20;79.30
27072;DHT22;14613;46.308;25.288;2023-02-14T10:02:32;6.20;78.50
27072;DHT22;14613;46.308;25.288;2023-02-14T10:05:22;6.20;79.50
27072;DHT22;14613;46.308;25.288;2023-02-14T10:10:45;6.30;78.60
27072;DHT22;14613;46.308;25.288;2023-02-14T10:16:07;6.40;78.70
27072;DHT22;14613;46.308;25.288;2023-02-14T10:18:40;6.40;78.60
27072;DHT22;14613;46.308;25.288;2023-02-14T10:21:10;6.50;78.70
27072;DHT22;14613;46.308;25.288;2023-02-14T10:23:49;6.50;78.70
27072;DHT22;14613;46.308;25.288;2023-02-14T10:26:25;6.60;78.60
27072;DHT22;14613;46.308;25.288;2023-02-14T10:28:53;6.70;78.30
27072;DHT22;14613;46.308;25.288;2023-02-14T10:31:38;6.70;78.30
27072;DHT22;14613;46.308;25.288;2023-02-14T10:43:10;6.80;77.80
27072;DHT22;14613;46.308;25.288;2023-02-14T10:45:42;6.80;77.70
27072;DHT22;14613;46.308;25.288;2023-02-14T10:48:16;6.70;77.60
27072;DHT22;14613;46.308;25.288;2023-02-14T10:53:31;6.70;77.30
27072;DHT22;14613;46.308;25.288;2023-02-14T10:56:03;6.60;77.20
27072;DHT22;14613;46.308;25.288;2023-02-14T10:58:33;6.50;77.20
27072;DHT22;14613;46.308;25.288;2023-02-14T11:01:13;6.50;77.20
27072;DHT22;14613;46.308;25.288;2023-02-14T11:03:54;6.40;77.20
27072;DHT22;14613;46.308;25.288;2023-02-14T11:06:20;6.40;77.40
27072;DHT22;14613;46.308;25.288;2023-02-14T11:08:46;6.40;77.30
27072;DHT22;14613;46.308;25.288;2023-02-14T11:13:44;6.50;77.30
27072;DHT22;14613;46.308;25.288;2023-02-14T11:16:17;6.50;77.00
27072;DHT22;14613;46.308;25.288;2023-02-14T11:18:43;6.40;76.90
27072;DHT22;14613;46.308;25.288;2023-02-14T11:21:13;6.40;77.00
27072;DHT22;14613;46.308;25.288;2023-02-14T11:23:42;6.40;77.20
27072;DHT22;14613;46.308;25.288;2023-02-14T11:26:31;6.50;77.40
27072;DHT22;14613;46.308;25.288;2023-02-14T11:29:09;6.60;77.30
27072;DHT22;14613;46.308;25.288;2023-02-14T11:31:37;6.60;76.90
27072;DHT22;14613;46.308;25.288;2023-02-14T11:36:48;6.60;76.80
27072;DHT22;14613;46.308;25.288;2023-02-14T11:39:30;6.70;77.00
27072;DHT22;14613;46.308;25.288;2023-02-14T11:42:03;6.70;77.10
27072;DHT22;14613;46.308;25.288;2023-02-14T11:44:31;6.80;77.10
27072;DHT22;14613;46.308;25.288;2023-02-14T11:47:19;6.90;77.00
27072;DHT22;14613;46.308;25.288;2023-02-14T11:50:00;6.90;76.80
27072;DHT22;14613;46.308;25.288;2023-02-14T11:52:27;7.00;76.90
27072;DHT22;14613;46.308;25.288;2023-02-14T11:54:55;7.00;76.70
27072;DHT22;14613;46.308;25.288;2023-02-14T11:57:28;7.00;76.50
27072;DHT22;14613;46.308;25.288;2023-02-14T11:59:58;7.00;76.40
27072;DHT22;14613;46.308;25.288;2023-02-14T12:03:04;7.10;76.40
27072;DHT22;14613;46.308;25.288;2023-02-14T12:05:46;7.10;76.30
27072;DHT22;14613;46.308;25.288;2023-02-14T12:08:13;7.10;76.20
27072;DHT22;14613;46.308;25.288;2023-02-14T12:10:39;7.10;75.90
27072;DHT22;14613;46.308;25.288;2023-02-14T12:21:46;6.80;75.60
27072;DHT22;14613;46.308;25.288;2023-02-14T12:24:32;6.70;75.70
27072;DHT22;14613;46.308;25.288;2023-02-14T12:29:38;6.50;75.70
27072;DHT22;14613;46.308;25.288;2023-02-14T12:32:23;6.50;75.70
27072;DHT22;14613;46.308;25.288;2023-02-14T12:34:52;6.40;75.60
27072;DHT22;14613;46.308;25.288;2023-02-14T12:40:20;6.30;75.90
27072;DHT22;14613;46.308;25.288;2023-02-14T12:51:24;6.10;76.20
27072;DHT22;14613;46.308;25.288;2023-02-14T12:54:31;6.10;76.90
27072;DHT22;14613;46.308;25.288;2023-02-14T12:57:02;6.10;76.20
27072;DHT22;14613;46.308;25.288;2023-02-14T13:21:46;6.10;75.80
27072;DHT22;14613;46.308;25.288;2023-02-14T13:24:40;6.10;75.90
27072;DHT22;14613;46.308;25.288;2023-02-14T13:27:10;6.10;75.90
27072;DHT22;14613;46.308;25.288;2023-02-14T13:29:47;6.10;75.90
27072;DHT22;14613;46.308;25.288;2023-02-14T13:32:17;6.10;76.00
27072;DHT22;14613;46.308;25.288;2023-02-14T13:34:48;6.10;75.90
27072;DHT22;14613;46.308;25.288;2023-02-14T13:37:21;6.00;75.70
27072;DHT22;14613;46.308;25.288;2023-02-14T13:48:18;5.90;75.90
27072;DHT22;14613;46.308;25.288;2023-02-14T13:53:29;5.80;76.10
27072;DHT22;14613;46.308;25.288;2023-02-14T13:55:55;5.70;76.20
27072;DHT22;14613;46.308;25.288;2023-02-14T13:58:22;5.70;76.30
27072;DHT22;14613;46.308;25.288;2023-02-14T14:00:54;5.60;76.30
27072;DHT22;14613;46.308;25.288;2023-02-14T14:06:05;5.60;76.30
27072;DHT22;14613;46.308;25.288;2023-02-14T14:08:35;5.70;76.50
27072;DHT22;14613;46.308;25.288;2023-02-14T14:19:09;5.60;76.40
27072;DHT22;14613;46.308;25.288;2023-02-14T14:22:09;5.60;76.40
27072;DHT22;14613;46.308;25.288;2023-02-14T14:24:57;5.60;76.50
27072;DHT22;14613;46.308;25.288;2023-02-14T14:27:39;5.60;76.50
27072;DHT22;14613;46.308;25.288;2023-02-14T14:30:18;5.60;76.50
27072;DHT22;14613;46.308;25.288;2023-02-14T14:32:45;5.60;76.50
27072;DHT22;14613;46.308;25.288;2023-02-14T14:37:53;5.60;76.40
27072;DHT22;14613;46.308;25.288;2023-02-14T14:40:24;5.60;76.40
27072;DHT22;14613;46.308;25.288;2023-02-14T14:42:51;5.60;76.40
27072;DHT22;14613;46.308;25.288;2023-02-14T14:45:22;5.60;76.40
27072;DHT22;14613;46.308;25.288;2023-02-14T14:47:57;5.60;76.30
27072;DHT22;14613;46.308;25.288;2023-02-14T14:50:28;5.60;76.30
27072;DHT22;14613;46.308;25.288;2023-02-14T14:53:06;5.60;76.30
27072;DHT22;14613;46.308;25.288;2023-02-14T14:55:37;5.60;76.30
27072;DHT22;14613;46.308;25.288;2023-02-14T14:58:06;5.60;76.30
27072;DHT22;14613;46.308;25.288;2023-02-14T15:00:37;5.60;76.30
27072;DHT22;14613;46.308;25.288;2023-02-14T15:03:14;5.60;76.30
27072;DHT22;14613;46.308;25.288;2023-02-14T15:05:46;5.60;76.30
27072;DHT22;14613;46.308;25.288;2023-02-14T15:11:21;5.50;76.30
27072;DHT22;14613;46.308;25.288;2023-02-14T15:14:12;5.40;76.30
27072;DHT22;14613;46.308;25.288;2023-02-14T15:16:56;5.40;76.40
27072;DHT22;14613;46.308;25.288;2023-02-14T15:19:30;5.30;76.40
27072;DHT22;14613;46.308;25.288;2023-02-14T15:22:01;5.40;76.50
27072;DHT22;14613;46.308;25.288;2023-02-14T15:24:27;5.40;76.50
27072;DHT22;14613;46.308;25.288;2023-02-14T15:26:55;5.30;76.60
27072;DHT22;14613;46.308;25.288;2023-02-14T15:29:28;5.30;76.70
27072;DHT22;14613;46.308;25.288;2023-02-14T15:31:56;5.30;76.70
27072;DHT22;14613;46.308;25.288;2023-02-14T15:34:33;5.30;76.70
27072;DHT22;14613;46.308;25.288;2023-02-14T15:37:03;5.30;76.60
27072;DHT22;14613;46.308;25.288;2023-02-14T15:39:43;5.30;76.60
27072;DHT22;14613;46.308;25.288;2023-02-14T15:42:29;5.30;76.60
27072;DHT22;14613;46.308;25.288;2023-02-14T15:45:16;5.30;76.60
27072;DHT22;14613;46.308;25.288;2023-02-14T15:47:44;5.20;76.70
27072;DHT22;14613;46.308;25.288;2023-02-14T15:50:34;5.20;76.60
27072;DHT22;14613;46.308;25.288;2023-02-14T15:53:07;5.30;76.80
27072;DHT22;14613;46.308;25.288;2023-02-14T15:55:35;5.20;76.80
27072;DHT22;14613;46.308;25.288;2023-02-14T15:58:04;5.20;76.80
27072;DHT22;14613;46.308;25.288;2023-02-14T16:00:30;5.20;76.80
27072;DHT22;14613;46.308;25.288;2023-02-14T16:03:03;5.10;76.80
27072;DHT22;14613;46.308;25.288;2023-02-14T16:05:30;5.10;76.90
27072;DHT22;14613;46.308;25.288;2023-02-14T16:11:02;5.00;77.00
27072;DHT22;14613;46.308;25.288;2023-02-14T16:13:31;5.00;77.20
27072;DHT22;14613;46.308;25.288;2023-02-14T16:16:03;5.00;77.20
27072;DHT22;14613;46.308;25.288;2023-02-14T16:21:13;4.90;77.40
27072;DHT22;14613;46.308;25.288;2023-02-14T16:23:40;4.80;77.50
27072;DHT22;14613;46.308;25.288;2023-02-14T16:26:07;4.80;77.60
27072;DHT22;14613;46.308;25.288;2023-02-14T16:28:33;4.80;77.60
27072;DHT22;14613;46.308;25.288;2023-02-14T16:31:02;4.80;77.60
27072;DHT22;14613;46.308;25.288;2023-02-14T16:33:33;4.80;77.60
27072;DHT22;14613;46.308;25.288;2023-02-14T16:38:42;4.80;77.70
27072;DHT22;14613;46.308;25.288;2023-02-14T16:41:17;4.70;77.80
27072;DHT22;14613;46.308;25.288;2023-02-14T16:43:43;4.70;77.90
27072;DHT22;14613;46.308;25.288;2023-02-14T16:46:15;4.70;78.00
27072;DHT22;14613;46.308;25.288;2023-02-14T16:48:41;4.70;77.90
27072;DHT22;14613;46.308;25.288;2023-02-14T16:51:14;4.80;77.90
27072;DHT22;14613;46.308;25.288;2023-02-14T16:53:41;4.80;78.00
27072;DHT22;14613;46.308;25.288;2023-02-14T16:56:45;4.80;78.10
27072;DHT22;14613;46.308;25.288;2023-02-14T16:59:13;4.80;78.20
27072;DHT22;14613;46.308;25.288;2023-02-14T17:01:38;4.80;78.20
27072;DHT22;14613;46.308;25.288;2023-02-14T17:04:05;4.90;78.30
27072;DHT22;14613;46.308;25.288;2023-02-14T17:06:32;4.90;78.30
27072;DHT22;14613;46.308;25.288;2023-02-14T17:09:03;4.90;78.30
27072;DHT22;14613;46.308;25.288;2023-02-14T17:11:34;4.90;78.40
27072;DHT22;14613;46.308;25.288;2023-02-14T17:14:00;5.00;78.40
27072;DHT22;14613;46.308;25.288;2023-02-14T17:16:26;5.00;78.40
27072;DHT22;14613;46.308;25.288;2023-02-14T17:18:53;5.00;78.60
27072;DHT22;14613;46.308;25.288;2023-02-14T17:21:21;5.00;78.60
27072;DHT22;14613;46.308;25.288;2023-02-14T17:23:48;5.00;78.60
27072;DHT22;14613;46.308;25.288;2023-02-14T17:26:13;5.00;78.70
27072;DHT22;14613;46.308;25.288;2023-02-14T17:28:40;5.00;78.70
27072;DHT22;14613;46.308;25.288;2023-02-14T17:31:06;5.00;78.80
27072;DHT22;14613;46.308;25.288;2023-02-14T17:33:32;5.10;78.80
27072;DHT22;14613;46.308;25.288;2023-02-14T17:36:10;5.10;78.80
27072;DHT22;14613;46.308;25.288;2023-02-14T17:38:37;5.10;78.90
27072;DHT22;14613;46.308;25.288;2023-02-14T17:41:12;5.10;79.00
27072;DHT22;14613;46.308;25.288;2023-02-14T17:43:38;5.00;79.00
27072;DHT22;14613;46.308;25.288;2023-02-14T17:46:04;5.10;79.20
27072;DHT22;14613;46.308;25.288;2023-02-14T17:48:30;5.10;79.20
27072;DHT22;14613;46.308;25.288;2023-02-14T17:50:56;5.10;79.20
27072;DHT22;14613;46.308;25.288;2023-02-14T17:53:22;5.10;79.30
27072;DHT22;14613;46.308;25.288;2023-02-14T17:55:48;5.00;79.20
27072;DHT22;14613;46.308;25.288;2023-02-14T17:58:13;5.10;79.30
27072;DHT22;14613;46.308;25.288;2023-02-14T18:00:39;5.10;79.30
27072;DHT22;14613;46.308;25.288;2023-02-14T18:03:07;5.10;79.50
27072;DHT22;14613;46.308;25.288;2023-02-14T18:05:35;5.10;79.40
27072;DHT22;14613;46.308;25.288;2023-02-14T18:08:01;5.10;79.50
27072;DHT22;14613;46.308;25.288;2023-02-14T18:10:27;5.00;79.60
27072;DHT22;14613;46.308;25.288;2023-02-14T18:12:53;5.00;79.80
27072;DHT22;14613;46.308;25.288;2023-02-14T18:15:18;5.00;79.90
27072;DHT22;14613;46.308;25.288;2023-02-14T18:17:48;5.00;79.80
27072;DHT22;14613;46.308;25.288;2023-02-14T18:20:15;5.10;79.80
27072;DHT22;14613;46.308;25.288;2023-02-14T18:22:40;5.10;79.70
27072;DHT22;14613;46.308;25.288;2023-02-14T18:25:06;5.10;79.80
27072;DHT22;14613;46.308;25.288;2023-02-14T18:27:32;5.00;79.90